createdAt,value
2023-05-14T00:00:00.571Z,19.10
2023-05-14T00:01:00.587Z,16.90
2023-05-14T00:02:00.631Z,16.90
2023-05-14T00:03:00.727Z,16.90
2023-05-14T00:04:01.172Z,16.90
2023-05-14T00:05:00.525Z,16.90
2023-05-14T00:06:00.511Z,16.90
2023-05-14T00:07:00.515Z,16.90
2023-05-14T00:08:00.551Z,16.90
2023-05-14T00:09:00.527Z,16.90
2023-05-14T00:10:00.551Z,16.90
2023-05-14T00:11:00.517Z,16.90
2023-05-14T00:12:00.525Z,16.90
2023-05-14T00:13:00.550Z,16.90
2023-05-14T00:14:00.554Z,16.90
2023-05-14T00:15:00.539Z,16.90
2023-05-14T00:16:00.930Z,16.90
2023-05-14T00:17:00.515Z,16.90
2023-05-14T00:18:00.558Z,16.90
2023-05-14T00:19:00.712Z,16.90
2023-05-14T00:20:00.523Z,16.90
2023-05-14T00:21:00.555Z,16.90
2023-05-14T00:22:00.541Z,16.90
2023-05-14T00:23:00.520Z,16.90
2023-05-14T00:24:00.527Z,16.90
2023-05-14T00:25:00.548Z,16.90
2023-05-14T00:26:00.529Z,16.90
2023-05-14T00:27:00.671Z,16.90
2023-05-14T00:28:00.519Z,16.90
2023-05-14T00:29:00.572Z,16.90
2023-05-14T00:30:00.604Z,16.90
2023-05-14T00:31:00.598Z,17.00
2023-05-14T00:32:00.560Z,17.00
2023-05-14T00:33:01.797Z,17.00
2023-05-14T00:34:00.558Z,17.00
2023-05-14T00:35:00.564Z,17.00
2023-05-14T00:36:00.557Z,17.00
2023-05-14T00:37:00.553Z,17.00
2023-05-14T00:38:00.806Z,17.00
2023-05-14T00:39:00.530Z,17.00
2023-05-14T00:40:00.601Z,17.00
2023-05-14T00:41:00.593Z,17.00
2023-05-14T00:42:00.568Z,17.00
2023-05-14T00:43:00.524Z,17.00
2023-05-14T00:44:00.629Z,17.00
2023-05-14T00:45:00.571Z,17.00
2023-05-14T00:46:00.573Z,17.00
2023-05-14T00:47:00.715Z,17.00
2023-05-14T00:48:00.609Z,17.00
2023-05-14T00:49:00.565Z,17.00
2023-05-14T00:50:01.326Z,17.00
2023-05-14T00:51:00.589Z,17.00
2023-05-14T00:52:00.583Z,17.00
2023-05-14T00:53:00.514Z,17.00
2023-05-14T00:54:00.630Z,17.00
2023-05-14T00:55:02.920Z,17.00
2023-05-14T00:56:01.361Z,17.00
2023-05-14T00:57:00.959Z,17.00
2023-05-14T00:58:01.815Z,17.00
2023-05-14T00:59:00.524Z,17.00
2023-05-14T01:00:00.966Z,17.00
2023-05-14T01:01:00.573Z,14.70
2023-05-14T01:02:00.587Z,14.70
2023-05-14T01:03:01.041Z,14.70
2023-05-14T01:04:00.771Z,14.70
2023-05-14T01:05:00.783Z,14.70
2023-05-14T01:06:00.486Z,14.70
2023-05-14T01:07:10.394Z,14.70
2023-05-14T01:08:05.820Z,14.70
2023-05-14T01:09:00.525Z,14.70
2023-05-14T01:10:04.995Z,14.70
2023-05-14T01:11:03.773Z,14.70
2023-05-14T01:12:10.373Z,14.70
2023-05-14T01:13:07.086Z,14.70
2023-05-14T01:14:10.388Z,14.70
2023-05-14T01:15:08.093Z,14.70
2023-05-14T01:16:03.003Z,14.70
2023-05-14T01:17:03.365Z,14.70
2023-05-14T01:18:02.803Z,14.70
2023-05-14T01:19:01.253Z,14.70
2023-05-14T01:20:01.239Z,14.70
2023-05-14T01:21:00.781Z,14.70
2023-05-14T01:22:00.523Z,14.70
2023-05-14T01:23:00.596Z,14.70
2023-05-14T01:24:00.584Z,14.70
2023-05-14T01:25:00.601Z,14.70
2023-05-14T01:26:00.527Z,14.70
2023-05-14T01:27:04.048Z,14.70
2023-05-14T01:28:10.381Z,14.70
2023-05-14T01:29:02.896Z,14.70
2023-05-14T01:30:07.006Z,14.70
2023-05-14T01:31:05.027Z,14.60
2023-05-14T01:32:02.856Z,14.60
2023-05-14T01:33:02.304Z,14.60
2023-05-14T01:34:02.362Z,14.60
2023-05-14T01:35:00.646Z,14.60
2023-05-14T01:36:00.984Z,14.60
2023-05-14T01:37:00.860Z,14.60
2023-05-14T01:38:02.373Z,14.60
2023-05-14T01:39:00.898Z,14.60
2023-05-14T01:40:01.106Z,14.60
2023-05-14T01:41:01.342Z,14.60
2023-05-14T01:42:01.388Z,14.60
2023-05-14T01:43:01.093Z,14.60
2023-05-14T01:44:00.648Z,14.60
2023-05-14T01:45:00.560Z,14.60
2023-05-14T01:46:00.637Z,14.60
2023-05-14T01:47:00.511Z,14.60
2023-05-14T01:48:00.592Z,14.60
2023-05-14T01:49:00.505Z,14.60
2023-05-14T01:50:00.520Z,14.60
2023-05-14T01:51:00.522Z,14.60
2023-05-14T01:52:00.513Z,14.60
2023-05-14T01:53:00.920Z,14.60
2023-05-14T01:54:00.528Z,14.60
2023-05-14T01:55:00.528Z,14.60
2023-05-14T01:56:00.798Z,14.60
2023-05-14T01:57:00.574Z,14.60
2023-05-14T01:58:00.591Z,14.60
2023-05-14T01:59:00.509Z,14.60
2023-05-14T02:00:00.839Z,14.60
2023-05-14T02:01:00.572Z,14.50
2023-05-14T02:02:00.751Z,14.50
2023-05-14T02:03:00.546Z,14.50
2023-05-14T02:04:00.575Z,14.50
2023-05-14T02:05:00.581Z,14.50
2023-05-14T02:06:00.518Z,14.50
2023-05-14T02:07:00.548Z,14.50
2023-05-14T02:08:00.547Z,14.50
2023-05-14T02:09:00.946Z,14.50
2023-05-14T02:10:00.529Z,14.50
2023-05-14T02:11:00.526Z,14.50
2023-05-14T02:12:00.529Z,14.50
2023-05-14T02:13:00.520Z,14.50
2023-05-14T02:14:00.545Z,14.50
2023-05-14T02:15:00.792Z,14.50
2023-05-14T02:16:00.590Z,14.50
2023-05-14T02:17:00.518Z,14.50
2023-05-14T02:18:00.581Z,14.50
2023-05-14T02:19:00.611Z,14.50
2023-05-14T02:20:00.531Z,14.50
2023-05-14T02:21:00.534Z,14.50
2023-05-14T02:22:00.567Z,14.50
2023-05-14T02:23:00.650Z,14.50
2023-05-14T02:24:00.513Z,14.50
2023-05-14T02:25:00.572Z,14.50
2023-05-14T02:26:00.517Z,14.50
2023-05-14T02:27:00.551Z,14.50
2023-05-14T02:28:00.520Z,14.50
2023-05-14T02:29:00.561Z,14.50
2023-05-14T02:30:00.529Z,14.50
2023-05-14T02:31:00.583Z,17.90
2023-05-14T02:32:00.571Z,17.90
2023-05-14T02:33:00.642Z,17.90
2023-05-14T02:34:00.974Z,17.90
2023-05-14T02:35:00.575Z,17.90
2023-05-14T02:36:00.532Z,17.90
2023-05-14T02:37:00.515Z,17.90
2023-05-14T02:38:00.553Z,17.90
2023-05-14T02:39:00.521Z,17.90
2023-05-14T02:40:00.558Z,17.90
2023-05-14T02:41:00.519Z,17.90
2023-05-14T02:42:00.585Z,17.90
2023-05-14T02:43:00.546Z,17.90
2023-05-14T02:44:00.526Z,17.90
2023-05-14T02:45:00.546Z,17.90
2023-05-14T02:46:00.528Z,17.90
2023-05-14T02:47:00.598Z,17.90
2023-05-14T02:48:00.627Z,17.90
2023-05-14T02:49:00.597Z,17.90
2023-05-14T02:50:00.541Z,17.90
2023-05-14T02:51:00.975Z,17.90
2023-05-14T02:52:00.516Z,17.90
2023-05-14T02:53:00.545Z,17.90
2023-05-14T02:54:00.521Z,17.90
2023-05-14T02:55:00.741Z,17.90
2023-05-14T02:56:00.545Z,17.90
2023-05-14T02:57:00.550Z,17.90
2023-05-14T02:58:00.558Z,17.90
2023-05-14T02:59:00.578Z,17.90
2023-05-14T03:00:00.581Z,17.90
2023-05-14T03:01:00.597Z,24.10
2023-05-14T03:02:00.592Z,24.10
2023-05-14T03:03:00.613Z,24.10
2023-05-14T03:04:00.521Z,24.10
2023-05-14T03:05:00.913Z,24.10
2023-05-14T03:06:00.533Z,24.10
2023-05-14T03:07:00.517Z,24.10
2023-05-14T03:08:00.520Z,24.10
2023-05-14T03:09:00.577Z,24.10
2023-05-14T03:10:00.556Z,24.10
2023-05-14T03:11:00.553Z,24.10
2023-05-14T03:12:00.550Z,24.10
2023-05-14T03:13:00.552Z,24.10
2023-05-14T03:14:00.552Z,24.10
2023-05-14T03:15:00.538Z,24.10
2023-05-14T03:16:00.520Z,24.10
2023-05-14T03:17:00.616Z,24.10
2023-05-14T03:18:00.560Z,24.10
2023-05-14T03:19:00.636Z,24.10
2023-05-14T03:20:00.608Z,24.10
2023-05-14T03:21:00.531Z,24.10
2023-05-14T03:22:00.567Z,24.10
2023-05-14T03:23:00.576Z,24.10
2023-05-14T03:24:00.514Z,24.10
2023-05-14T03:25:00.572Z,24.10
2023-05-14T03:26:00.707Z,24.10
2023-05-14T03:27:00.508Z,24.10
2023-05-14T03:28:00.533Z,24.10
2023-05-14T03:29:01.157Z,24.10
2023-05-14T03:30:00.571Z,24.10
2023-05-14T03:31:00.616Z,26.40
2023-05-14T03:32:00.583Z,26.40
2023-05-14T03:33:00.600Z,26.40
2023-05-14T03:34:00.562Z,26.40
2023-05-14T03:35:00.520Z,26.40
2023-05-14T03:36:00.594Z,26.40
2023-05-14T03:37:00.534Z,26.40
2023-05-14T03:38:00.573Z,26.40
2023-05-14T03:39:00.646Z,26.40
2023-05-14T03:40:00.511Z,26.40
2023-05-14T03:41:00.528Z,26.40
2023-05-14T03:42:00.566Z,26.40
2023-05-14T03:43:00.522Z,26.40
2023-05-14T03:44:00.630Z,26.40
2023-05-14T03:45:00.525Z,26.40
2023-05-14T03:46:00.512Z,26.40
2023-05-14T03:47:00.551Z,26.40
2023-05-14T03:48:00.696Z,26.40
2023-05-14T03:49:00.618Z,26.40
2023-05-14T03:50:00.606Z,26.40
2023-05-14T03:51:00.516Z,26.40
2023-05-14T03:52:00.570Z,26.40
2023-05-14T03:53:00.551Z,26.40
2023-05-14T03:54:00.563Z,26.40
2023-05-14T03:55:00.574Z,26.40
2023-05-14T03:56:00.520Z,26.40
2023-05-14T03:57:00.512Z,26.40
2023-05-14T03:58:00.560Z,26.40
2023-05-14T03:59:00.530Z,26.40
2023-05-14T04:00:00.695Z,26.40
2023-05-14T04:01:00.560Z,25.30
2023-05-14T04:02:00.566Z,25.30
2023-05-14T04:03:00.700Z,25.30
2023-05-14T04:04:00.725Z,25.30
2023-05-14T04:05:00.608Z,25.30
2023-05-14T04:06:00.667Z,25.30
2023-05-14T04:07:00.523Z,25.30
2023-05-14T04:08:00.564Z,25.30
2023-05-14T04:09:00.532Z,25.30
2023-05-14T04:10:04.191Z,25.30
2023-05-14T04:11:00.533Z,25.30
2023-05-14T04:12:00.585Z,25.30
2023-05-14T04:13:00.515Z,25.30
2023-05-14T04:14:00.529Z,25.30
2023-05-14T04:15:00.512Z,25.30
2023-05-14T04:16:00.597Z,25.30
2023-05-14T04:17:00.669Z,25.30
2023-05-14T04:18:00.679Z,25.30
2023-05-14T04:19:01.177Z,25.30
2023-05-14T04:20:00.556Z,25.30
2023-05-14T04:21:01.109Z,25.30
2023-05-14T04:22:00.526Z,25.30
2023-05-14T04:23:00.536Z,25.30
2023-05-14T04:24:00.546Z,25.30
2023-05-14T04:25:00.570Z,25.30
2023-05-14T04:26:00.527Z,25.30
2023-05-14T04:27:00.520Z,25.30
2023-05-14T04:28:00.518Z,25.30
2023-05-14T04:29:00.540Z,25.30
2023-05-14T04:30:00.647Z,25.30
2023-05-14T04:31:00.548Z,25.30
2023-05-14T04:32:00.549Z,26.90
2023-05-14T04:33:00.546Z,26.90
2023-05-14T04:34:00.530Z,26.90
2023-05-14T04:35:00.508Z,26.90
2023-05-14T04:36:00.577Z,26.90
2023-05-14T04:37:00.517Z,26.90
2023-05-14T04:38:00.523Z,26.90
2023-05-14T04:39:00.520Z,26.90
2023-05-14T04:40:00.577Z,26.90
2023-05-14T04:41:00.599Z,26.90
2023-05-14T04:42:00.530Z,26.90
2023-05-14T04:43:00.570Z,26.90
2023-05-14T04:44:01.923Z,26.90
2023-05-14T04:45:00.525Z,26.90
2023-05-14T04:46:00.625Z,26.90
2023-05-14T04:47:00.751Z,26.90
2023-05-14T04:48:01.185Z,26.90
2023-05-14T04:49:00.525Z,26.90
2023-05-14T04:50:00.571Z,26.90
2023-05-14T04:51:00.530Z,26.90
2023-05-14T04:52:00.596Z,26.90
2023-05-14T04:53:00.563Z,26.90
2023-05-14T04:54:00.633Z,26.90
2023-05-14T04:55:00.552Z,26.90
2023-05-14T04:56:00.510Z,26.90
2023-05-14T04:57:00.524Z,26.90
2023-05-14T04:58:00.573Z,26.90
2023-05-14T04:59:00.510Z,26.90
2023-05-14T05:00:00.652Z,26.90
2023-05-14T05:01:00.617Z,26.90
2023-05-14T05:02:00.525Z,28.30
2023-05-14T05:03:00.817Z,28.30
2023-05-14T05:04:00.630Z,28.30
2023-05-14T05:05:01.501Z,28.30
2023-05-14T05:06:00.550Z,28.30
2023-05-14T05:07:00.615Z,28.30
2023-05-14T05:08:00.532Z,28.30
2023-05-14T05:09:02.327Z,28.30
2023-05-14T05:10:00.684Z,28.30
2023-05-14T05:11:00.520Z,28.30
2023-05-14T05:12:00.530Z,28.30
2023-05-14T05:13:00.587Z,28.30
2023-05-14T05:14:00.629Z,28.30
2023-05-14T05:15:00.589Z,28.30
2023-05-14T05:16:00.671Z,28.30
2023-05-14T05:17:00.597Z,28.30
2023-05-14T05:18:00.611Z,28.30
2023-05-14T05:19:00.858Z,28.30
2023-05-14T05:20:00.613Z,28.30
2023-05-14T05:21:00.535Z,28.30
2023-05-14T05:22:00.785Z,28.30
2023-05-14T05:23:00.609Z,28.30
2023-05-14T05:24:00.589Z,28.30
2023-05-14T05:25:00.712Z,28.30
2023-05-14T05:26:00.535Z,28.30
2023-05-14T05:27:00.553Z,28.30
2023-05-14T05:28:00.673Z,28.30
2023-05-14T05:29:00.531Z,28.30
2023-05-14T05:30:00.747Z,28.30
2023-05-14T05:31:00.561Z,28.30
2023-05-14T05:32:00.638Z,28.30
2023-05-14T05:33:00.631Z,28.30
2023-05-14T05:34:02.717Z,28.30
2023-05-14T05:35:00.557Z,28.30
2023-05-14T05:36:00.574Z,28.30
2023-05-14T05:37:00.513Z,28.30
2023-05-14T05:38:01.766Z,28.30
2023-05-14T05:39:00.527Z,28.30
2023-05-14T05:40:00.529Z,28.30
2023-05-14T05:41:00.514Z,28.30
2023-05-14T05:42:00.855Z,28.30
2023-05-14T05:43:00.558Z,28.30
2023-05-14T05:44:00.522Z,28.30
2023-05-14T05:45:00.535Z,28.30
2023-05-14T05:46:00.605Z,28.30
2023-05-14T05:47:00.869Z,28.30
2023-05-14T05:48:00.550Z,28.30
2023-05-14T05:49:00.528Z,28.30
2023-05-14T05:50:00.574Z,28.30
2023-05-14T05:51:00.571Z,28.30
2023-05-14T05:52:00.510Z,28.30
2023-05-14T05:53:00.577Z,28.30
2023-05-14T05:54:00.544Z,28.30
2023-05-14T05:55:00.518Z,28.30
2023-05-14T05:56:00.557Z,28.30
2023-05-14T05:57:00.547Z,28.30
2023-05-14T05:58:00.518Z,28.30
2023-05-14T05:59:00.550Z,28.30
2023-05-14T06:00:00.555Z,28.30
2023-05-14T06:01:00.523Z,28.30
2023-05-14T06:02:00.625Z,25.90
2023-05-14T06:03:00.585Z,25.90
2023-05-14T06:04:00.543Z,25.90
2023-05-14T06:05:00.602Z,25.90
2023-05-14T06:06:00.518Z,25.90
2023-05-14T06:07:00.573Z,25.90
2023-05-14T06:08:01.031Z,25.90
2023-05-14T06:09:00.519Z,25.90
2023-05-14T06:10:00.579Z,25.90
2023-05-14T06:11:00.546Z,25.90
2023-05-14T06:12:00.579Z,25.90
2023-05-14T06:13:00.708Z,25.90
2023-05-14T06:14:00.560Z,25.90
2023-05-14T06:15:00.557Z,25.90
2023-05-14T06:16:00.585Z,25.90
2023-05-14T06:17:00.654Z,25.90
2023-05-14T06:18:00.564Z,25.90
2023-05-14T06:19:00.568Z,25.90
2023-05-14T06:20:00.511Z,25.90
2023-05-14T06:21:00.564Z,25.90
2023-05-14T06:22:00.566Z,25.90
2023-05-14T06:23:00.523Z,25.90
2023-05-14T06:24:00.553Z,25.90
2023-05-14T06:25:00.567Z,25.90
2023-05-14T06:26:00.573Z,25.90
2023-05-14T06:27:00.543Z,25.90
2023-05-14T06:28:00.517Z,25.90
2023-05-14T06:29:00.520Z,25.90
2023-05-14T06:30:00.555Z,25.90
2023-05-14T06:31:00.516Z,25.90
2023-05-14T06:32:00.806Z,22.50
2023-05-14T06:33:00.564Z,22.50
2023-05-14T06:34:00.548Z,22.50
2023-05-14T06:35:00.524Z,22.50
2023-05-14T06:36:03.107Z,22.50
2023-05-14T06:37:00.553Z,22.50
2023-05-14T06:38:00.573Z,22.50
2023-05-14T06:39:00.530Z,22.50
2023-05-14T06:40:00.911Z,22.50
2023-05-14T06:41:00.549Z,22.50
2023-05-14T06:42:00.572Z,22.50
2023-05-14T06:43:00.587Z,22.50
2023-05-14T06:44:00.535Z,22.50
2023-05-14T06:45:00.567Z,22.50
2023-05-14T06:46:00.526Z,22.50
2023-05-14T06:47:00.540Z,22.50
2023-05-14T06:48:00.665Z,22.50
2023-05-14T06:49:00.560Z,22.50
2023-05-14T06:50:00.564Z,22.50
2023-05-14T06:51:00.517Z,22.50
2023-05-14T06:52:00.568Z,22.50
2023-05-14T06:53:00.555Z,22.50
2023-05-14T06:54:00.520Z,22.50
2023-05-14T06:55:00.552Z,22.50
2023-05-14T06:56:00.516Z,22.50
2023-05-14T06:57:00.516Z,22.50
2023-05-14T06:58:00.585Z,22.50
2023-05-14T06:59:00.520Z,22.50
2023-05-14T07:00:02.889Z,22.50
2023-05-14T07:01:00.580Z,22.50
2023-05-14T07:02:00.676Z,25.10
2023-05-14T07:03:00.608Z,25.10
2023-05-14T07:04:00.612Z,25.10
2023-05-14T07:05:00.531Z,25.10
2023-05-14T07:06:00.538Z,25.10
2023-05-14T07:07:00.608Z,25.10
2023-05-14T07:08:00.521Z,25.10
2023-05-14T07:09:00.792Z,25.10
2023-05-14T07:10:00.509Z,25.10
2023-05-14T07:11:00.654Z,25.10
2023-05-14T07:12:00.529Z,25.10
2023-05-14T07:13:00.554Z,25.10
2023-05-14T07:14:00.527Z,25.10
2023-05-14T07:15:00.548Z,25.10
2023-05-14T07:16:00.628Z,25.10
2023-05-14T07:17:00.598Z,25.10
2023-05-14T07:18:00.616Z,25.10
2023-05-14T07:19:00.587Z,25.10
2023-05-14T07:20:00.615Z,25.10
2023-05-14T07:21:00.556Z,25.10
2023-05-14T07:22:00.566Z,25.10
2023-05-14T07:23:00.587Z,25.10
2023-05-14T07:24:00.583Z,25.10
2023-05-14T07:25:00.515Z,25.10
2023-05-14T07:26:00.520Z,25.10
2023-05-14T07:27:00.574Z,25.10
2023-05-14T07:28:00.539Z,25.10
2023-05-14T07:29:00.515Z,25.10
2023-05-14T07:30:00.565Z,25.10
2023-05-14T07:31:00.638Z,25.10
2023-05-14T07:32:00.616Z,21.60
2023-05-14T07:33:00.594Z,21.60
2023-05-14T07:34:00.519Z,21.60
2023-05-14T07:35:00.555Z,21.60
2023-05-14T07:36:00.556Z,21.60
2023-05-14T07:37:00.802Z,21.60
2023-05-14T07:38:00.527Z,21.60
2023-05-14T07:39:00.568Z,21.60
2023-05-14T07:40:00.569Z,21.60
2023-05-14T07:41:00.556Z,21.60
2023-05-14T07:42:00.772Z,21.60
2023-05-14T07:43:00.518Z,21.60
2023-05-14T07:44:00.570Z,21.60
2023-05-14T07:45:00.573Z,21.60
2023-05-14T07:46:00.570Z,21.60
2023-05-14T07:47:00.751Z,21.60
2023-05-14T07:49:00.515Z,21.60
2023-05-14T07:50:00.543Z,21.60
2023-05-14T07:51:00.531Z,21.60
2023-05-14T07:52:00.528Z,21.60
2023-05-14T07:53:00.528Z,21.60
2023-05-14T07:54:00.659Z,21.60
2023-05-14T07:55:01.439Z,21.60
2023-05-14T07:56:00.518Z,21.60
2023-05-14T07:57:00.515Z,21.60
2023-05-14T07:58:00.505Z,21.60
2023-05-14T07:59:00.563Z,21.60
2023-05-14T08:00:00.608Z,21.60
2023-05-14T08:01:00.560Z,21.60
2023-05-14T08:02:00.592Z,22.90
2023-05-14T08:03:00.727Z,22.90
2023-05-14T08:04:00.647Z,22.90
2023-05-14T08:05:00.625Z,22.90
2023-05-14T08:06:00.516Z,22.90
2023-05-14T08:07:00.578Z,22.90
2023-05-14T08:08:00.521Z,22.90
2023-05-14T08:09:00.511Z,22.90
2023-05-14T08:10:00.568Z,22.90
2023-05-14T08:11:00.947Z,22.90
2023-05-14T08:12:00.569Z,22.90
2023-05-14T08:13:00.525Z,22.90
2023-05-14T08:14:00.540Z,22.90
2023-05-14T08:15:01.234Z,22.90
2023-05-14T08:16:00.560Z,22.90
2023-05-14T08:17:00.602Z,22.90
2023-05-14T08:18:00.624Z,22.90
2023-05-14T08:19:00.622Z,22.90
2023-05-14T08:20:00.554Z,22.90
2023-05-14T08:21:02.691Z,22.90
2023-05-14T08:22:00.520Z,22.90
2023-05-14T08:23:00.536Z,22.90
2023-05-14T08:24:00.549Z,22.90
2023-05-14T08:25:00.542Z,22.90
2023-05-14T08:26:00.562Z,22.90
2023-05-14T08:27:00.582Z,22.90
2023-05-14T08:28:00.543Z,22.90
2023-05-14T08:29:00.526Z,22.90
2023-05-14T08:30:00.545Z,22.90
2023-05-14T08:31:00.611Z,22.90
2023-05-14T08:32:08.403Z,24.10
2023-05-14T08:33:00.610Z,24.10
2023-05-14T08:34:00.531Z,24.10
2023-05-14T08:35:00.518Z,24.10
2023-05-14T08:36:00.641Z,24.10
2023-05-14T08:37:00.641Z,24.10
2023-05-14T08:38:00.544Z,24.10
2023-05-14T08:39:00.574Z,24.10
2023-05-14T08:40:00.607Z,24.10
2023-05-14T08:41:00.566Z,24.10
2023-05-14T08:42:00.868Z,24.10
2023-05-14T08:43:01.041Z,24.10
2023-05-14T08:44:10.405Z,24.10
2023-05-14T08:45:01.166Z,24.10
2023-05-14T08:46:04.682Z,24.10
2023-05-14T08:47:00.829Z,24.10
2023-05-14T08:48:02.481Z,24.10
2023-05-14T08:49:06.204Z,24.10
2023-05-14T08:50:01.482Z,24.10
2023-05-14T08:51:00.821Z,24.10
2023-05-14T08:52:00.940Z,24.10
2023-05-14T08:53:00.559Z,24.10
2023-05-14T08:54:01.811Z,24.10
2023-05-14T08:55:02.457Z,24.10
2023-05-14T08:56:00.773Z,24.10
2023-05-14T08:57:01.887Z,24.10
2023-05-14T08:58:00.551Z,24.10
2023-05-14T08:59:00.512Z,24.10
2023-05-14T09:00:01.350Z,24.10
2023-05-14T09:01:00.552Z,24.10
2023-05-14T09:02:00.894Z,26.10
2023-05-14T09:03:00.882Z,26.10
2023-05-14T09:04:01.477Z,26.10
2023-05-14T09:05:01.088Z,26.10
2023-05-14T09:06:01.048Z,26.10
2023-05-14T09:07:00.943Z,26.10
2023-05-14T09:08:00.558Z,26.10
2023-05-14T09:09:00.542Z,26.10
2023-05-14T09:10:00.785Z,26.10
2023-05-14T09:11:00.534Z,26.10
2023-05-14T09:12:00.560Z,26.10
2023-05-14T09:13:00.631Z,26.10
2023-05-14T09:14:00.517Z,26.10
2023-05-14T09:15:00.535Z,26.10
2023-05-14T09:16:00.756Z,26.10
2023-05-14T09:17:00.617Z,26.10
2023-05-14T09:18:00.662Z,26.10
2023-05-14T09:19:00.743Z,26.10
2023-05-14T09:20:00.553Z,26.10
2023-05-14T09:21:00.564Z,26.10
2023-05-14T09:22:00.531Z,26.10
2023-05-14T09:23:00.536Z,26.10
2023-05-14T09:24:00.527Z,26.10
2023-05-14T09:25:02.062Z,26.10
2023-05-14T09:26:03.376Z,26.10
2023-05-14T09:27:00.914Z,26.10
2023-05-14T09:28:04.791Z,26.10
2023-05-14T09:29:01.117Z,26.10
2023-05-14T09:30:10.395Z,26.10
2023-05-14T09:31:01.459Z,26.10
2023-05-14T09:32:00.634Z,25.20
2023-05-14T09:33:00.600Z,25.20
2023-05-14T09:34:00.529Z,25.20
2023-05-14T09:35:10.378Z,25.20
2023-05-14T09:36:00.891Z,25.20
2023-05-14T09:37:02.128Z,25.20
2023-05-14T09:38:00.534Z,25.20
2023-05-14T09:39:02.979Z,25.20
2023-05-14T09:40:05.037Z,25.20
2023-05-14T09:41:00.527Z,25.20
2023-05-14T09:42:00.961Z,25.20
2023-05-14T09:43:00.649Z,25.20
2023-05-14T09:44:00.554Z,25.20
2023-05-14T09:45:00.514Z,25.20
2023-05-14T09:46:00.573Z,25.20
2023-05-14T09:47:00.645Z,25.20
2023-05-14T09:48:00.679Z,25.20
2023-05-14T09:49:00.522Z,25.20
2023-05-14T09:50:00.589Z,25.20
2023-05-14T09:51:01.441Z,25.20
2023-05-14T09:52:00.961Z,25.20
2023-05-14T09:53:00.652Z,25.20
2023-05-14T09:54:01.030Z,25.20
2023-05-14T09:55:00.687Z,25.20
2023-05-14T09:56:00.553Z,25.20
2023-05-14T09:57:00.529Z,25.20
2023-05-14T09:58:00.535Z,25.20
2023-05-14T09:59:00.721Z,25.20
2023-05-14T10:00:00.583Z,25.20
2023-05-14T10:01:00.763Z,25.20
2023-05-14T10:02:00.950Z,23.50
2023-05-14T10:03:06.140Z,23.50
2023-05-14T10:04:02.081Z,23.50
2023-05-14T10:05:01.489Z,23.50
2023-05-14T10:06:03.441Z,23.50
2023-05-14T10:07:00.786Z,23.50
2023-05-14T10:08:02.328Z,23.50
2023-05-14T10:09:02.214Z,23.50
2023-05-14T10:10:01.285Z,23.50
2023-05-14T10:11:04.913Z,23.50
2023-05-14T10:12:00.703Z,23.50
2023-05-14T10:13:02.926Z,23.50
2023-05-14T10:14:00.486Z,23.50
2023-05-14T10:15:03.121Z,23.50
2023-05-14T10:16:04.089Z,23.50
2023-05-14T10:17:00.705Z,23.50
2023-05-14T10:18:02.972Z,23.50
2023-05-14T10:19:04.799Z,23.50
2023-05-14T10:20:01.292Z,23.50
2023-05-14T10:21:04.208Z,23.50
2023-05-14T10:22:03.301Z,23.50
2023-05-14T10:23:00.649Z,23.50
2023-05-14T10:24:01.176Z,23.50
2023-05-14T10:25:01.943Z,23.50
2023-05-14T10:26:00.804Z,23.50
2023-05-14T10:27:00.914Z,23.50
2023-05-14T10:28:01.096Z,23.50
2023-05-14T10:29:00.550Z,23.50
2023-05-14T10:30:04.523Z,23.50
2023-05-14T10:31:00.711Z,23.50
2023-05-14T10:32:05.102Z,20.90
2023-05-14T10:33:10.536Z,20.90
2023-05-14T10:34:00.522Z,20.90
2023-05-14T10:35:00.597Z,20.90
2023-05-14T10:36:02.065Z,20.90
2023-05-14T10:37:01.424Z,20.90
2023-05-14T10:38:00.527Z,20.90
2023-05-14T10:39:02.524Z,20.90
2023-05-14T10:40:01.244Z,20.90
2023-05-14T10:41:01.773Z,20.90
2023-05-14T10:42:00.522Z,20.90
2023-05-14T10:43:01.483Z,20.90
2023-05-14T10:44:07.111Z,20.90
2023-05-14T10:45:01.430Z,20.90
2023-05-14T10:46:00.943Z,20.90
2023-05-14T10:47:01.192Z,20.90
2023-05-14T10:48:00.641Z,20.90
2023-05-14T10:49:00.707Z,20.90
2023-05-14T10:50:02.454Z,20.90
2023-05-14T10:51:00.956Z,20.90
2023-05-14T10:52:00.730Z,20.90
2023-05-14T10:53:01.178Z,20.90
2023-05-14T10:54:00.639Z,20.90
2023-05-14T10:55:03.646Z,20.90
2023-05-14T10:56:01.909Z,20.90
2023-05-14T10:57:00.553Z,20.90
2023-05-14T10:58:03.164Z,20.90
2023-05-14T10:59:01.372Z,20.90
2023-05-14T11:00:00.647Z,20.90
2023-05-14T11:01:00.546Z,20.90
2023-05-14T11:02:03.719Z,20.40
2023-05-14T11:03:02.701Z,20.40
2023-05-14T11:04:01.877Z,20.40
2023-05-14T11:05:01.716Z,20.40
2023-05-14T11:06:02.239Z,20.40
2023-05-14T11:07:00.572Z,20.40
2023-05-14T11:08:02.816Z,20.40
2023-05-14T11:09:01.042Z,20.40
2023-05-14T11:10:02.130Z,20.40
2023-05-14T11:11:00.911Z,20.40
2023-05-14T11:12:00.556Z,20.40
2023-05-14T11:13:00.562Z,20.40
2023-05-14T11:14:00.540Z,20.40
2023-05-14T11:15:01.353Z,20.40
2023-05-14T11:16:08.784Z,20.40
2023-05-14T11:17:00.661Z,20.40
2023-05-14T11:18:00.599Z,20.40
2023-05-14T11:19:00.996Z,20.40
2023-05-14T11:20:00.610Z,20.40
2023-05-14T11:21:00.887Z,20.40
2023-05-14T11:22:00.520Z,20.40
2023-05-14T11:23:00.549Z,20.40
2023-05-14T11:24:00.534Z,20.40
2023-05-14T11:25:00.594Z,20.40
2023-05-14T11:26:00.591Z,20.40
2023-05-14T11:27:00.574Z,20.40
2023-05-14T11:28:00.554Z,20.40
2023-05-14T11:29:00.559Z,20.40
2023-05-14T11:30:00.669Z,20.40
2023-05-14T11:31:00.558Z,20.40
2023-05-14T11:32:01.090Z,21.80
2023-05-14T11:33:02.096Z,21.80
2023-05-14T11:34:00.526Z,21.80
2023-05-14T11:35:00.545Z,21.80
2023-05-14T11:36:00.617Z,21.80
2023-05-14T11:37:02.290Z,21.80
2023-05-14T11:38:00.534Z,21.80
2023-05-14T11:39:00.519Z,21.80
2023-05-14T11:40:00.560Z,21.80
2023-05-14T11:41:00.530Z,21.80
2023-05-14T11:42:01.883Z,21.80
2023-05-14T11:43:00.578Z,21.80
2023-05-14T11:44:02.183Z,21.80
2023-05-14T11:45:00.590Z,21.80
2023-05-14T11:46:00.572Z,21.80
2023-05-14T11:47:00.574Z,21.80
2023-05-14T11:48:00.603Z,21.80
2023-05-14T11:49:02.805Z,21.80
2023-05-14T11:50:00.579Z,21.80
2023-05-14T11:51:00.528Z,21.80
2023-05-14T11:52:01.496Z,21.80
2023-05-14T11:53:00.570Z,21.80
2023-05-14T11:54:00.528Z,21.80
2023-05-14T11:55:01.160Z,21.80
2023-05-14T11:56:00.873Z,21.80
2023-05-14T11:57:06.146Z,21.80
2023-05-14T11:58:00.635Z,21.80
2023-05-14T11:59:00.530Z,21.80
2023-05-14T12:00:00.606Z,21.80
2023-05-14T12:01:00.584Z,21.80
2023-05-14T12:02:00.651Z,14.40
2023-05-14T12:03:00.639Z,14.40
2023-05-14T12:04:00.790Z,14.40
2023-05-14T12:05:00.660Z,14.40
2023-05-14T12:06:04.967Z,14.40
2023-05-14T12:07:06.098Z,14.40
2023-05-14T12:08:00.607Z,14.40
2023-05-14T12:09:00.514Z,14.40
2023-05-14T12:10:01.989Z,14.40
2023-05-14T12:11:00.598Z,14.40
2023-05-14T12:12:06.971Z,14.40
2023-05-14T12:13:05.731Z,14.40
2023-05-14T12:14:00.595Z,14.40
2023-05-14T12:15:00.604Z,14.40
2023-05-14T12:16:01.014Z,14.40
2023-05-14T12:17:00.730Z,14.40
2023-05-14T12:18:02.655Z,14.40
2023-05-14T12:19:00.786Z,14.40
2023-05-14T12:20:00.596Z,14.40
2023-05-14T12:21:02.177Z,14.40
2023-05-14T12:22:00.548Z,14.40
2023-05-14T12:23:00.545Z,14.40
2023-05-14T12:24:00.570Z,14.40
2023-05-14T12:25:00.573Z,14.40
2023-05-14T12:26:01.523Z,14.40
2023-05-14T12:27:01.111Z,14.40
2023-05-14T12:28:00.522Z,14.40
2023-05-14T12:29:01.242Z,14.40
2023-05-14T12:30:12.980Z,14.40
2023-05-14T12:31:00.543Z,14.40
2023-05-14T12:32:00.617Z,13.30
2023-05-14T12:33:00.606Z,13.30
2023-05-14T12:34:00.768Z,13.30
2023-05-14T12:35:00.590Z,13.30
2023-05-14T12:36:04.744Z,13.30
2023-05-14T12:37:00.575Z,13.30
2023-05-14T12:38:00.566Z,13.30
2023-05-14T12:39:01.202Z,13.30
2023-05-14T12:40:00.679Z,13.30
2023-05-14T12:41:00.551Z,13.30
2023-05-14T12:42:00.788Z,13.30
2023-05-14T12:43:00.577Z,13.30
2023-05-14T12:44:01.445Z,13.30
2023-05-14T12:45:00.559Z,13.30
2023-05-14T12:46:00.582Z,13.30
2023-05-14T12:47:00.804Z,13.30
2023-05-14T12:48:00.537Z,13.30
2023-05-14T12:49:00.557Z,13.30
2023-05-14T12:50:00.564Z,13.30
2023-05-14T12:51:00.586Z,13.30
2023-05-14T12:52:19.463Z,13.30
2023-05-14T12:53:00.536Z,13.30